Time;durP1;ratioP1;P1;durP2;ratioP2;P2;SDS_P1;SDS_P2;PMS_P1;PMS_P2;Temp;Humidity;BMP_temperature;BMP_pressure;BME280_temperature;BME280_humidity;BME280_pressure;Samples;Min_cycle;Max_cycle;Signal;HPM_P1;HPM_P2
2022/03/09 00:00:04;;;;;;;7.10;3.83;;;1.00;87.10;;;;;;4977709;28;20239;-82
2022/03/09 00:02:31;;;;;;;6.07;3.87;;;1.00;87.30;;;;;;4985576;28;20232;-82
2022/03/09 00:04:58;;;;;;;5.07;3.73;;;1.00;87.30;;;;;;4969902;28;20292;-80
2022/03/09 00:07:26;;;;;;;6.77;3.80;;;1.00;87.50;;;;;;4957496;28;20231;-81
2022/03/09 00:09:52;;;;;;;7.60;3.83;;;1.00;87.60;;;;;;4969276;28;20309;-82
2022/03/09 00:12:19;;;;;;;5.70;4.40;;;0.90;87.80;;;;;;4974085;28;20232;-81
2022/03/09 00:14:47;;;;;;;6.40;4.20;;;0.90;87.90;;;;;;4968623;28;20232;-82
2022/03/09 00:17:14;;;;;;;4.87;3.47;;;0.90;88.20;;;;;;4984993;28;20226;-80
2022/03/09 00:19:42;;;;;;;5.57;3.93;;;0.90;88.40;;;;;;4961536;28;20231;-82
2022/03/09 00:22:09;;;;;;;5.63;3.60;;;0.80;88.30;;;;;;4965131;28;20242;-81
2022/03/09 00:24:36;;;;;;;5.10;4.00;;;0.80;88.10;;;;;;4966079;28;20624;-82
2022/03/09 00:27:04;;;;;;;6.73;4.07;;;0.70;87.90;;;;;;4970530;28;20233;-81
2022/03/09 00:29:30;;;;;;;5.57;3.90;;;0.70;87.80;;;;;;4963704;28;20252;-81
2022/03/09 00:31:59;;;;;;;6.80;3.97;;;0.60;88.30;;;;;;4967868;28;20262;-80
2022/03/09 00:34:25;;;;;;;6.10;3.30;;;0.50;88.90;;;;;;4965857;28;20741;-80
2022/03/09 00:36:52;;;;;;;5.17;3.37;;;0.50;88.60;;;;;;4966502;28;20250;-82
2022/03/09 00:39:19;;;;;;;6.50;3.67;;;0.40;88.40;;;;;;4969721;28;20226;-81
2022/03/09 00:41:45;;;;;;;6.23;3.53;;;0.40;88.80;;;;;;4982778;28;20234;-81
2022/03/09 00:44:12;;;;;;;7.13;3.73;;;0.30;88.70;;;;;;4966104;28;20314;-81
2022/03/09 00:46:39;;;;;;;6.17;4.10;;;0.30;88.80;;;;;;4985797;28;20280;-81
2022/03/09 00:49:07;;;;;;;6.00;3.60;;;0.20;89.50;;;;;;4956634;28;20250;-81
2022/03/09 00:51:33;;;;;;;4.60;3.43;;;0.20;90.00;;;;;;4981822;28;20234;-83
2022/03/09 00:54:00;;;;;;;6.17;4.07;;;0.20;90.00;;;;;;4959581;28;20222;-82
2022/03/09 00:56:27;;;;;;;5.43;3.63;;;0.20;90.10;;;;;;4969829;28;20318;-81
2022/03/09 00:58:53;;;;;;;5.77;3.50;;;0.00;90.20;;;;;;4980078;28;20262;-82
2022/03/09 01:01:20;;;;;;;6.07;3.93;;;0.10;90.30;;;;;;4984749;28;20222;-81
2022/03/09 01:03:47;;;;;;;4.70;3.57;;;0.00;90.40;;;;;;4967961;28;20239;-81
2022/03/09 01:06:15;;;;;;;6.23;3.70;;;0.00;90.50;;;;;;4968613;28;20462;-81
2022/03/09 01:08:42;;;;;;;6.87;3.83;;;-0.10;90.60;;;;;;4969100;28;20258;-82
2022/03/09 01:11:09;;;;;;;5.73;3.70;;;-0.10;90.50;;;;;;4982665;28;20232;-81
2022/03/09 01:13:36;;;;;;;5.57;3.87;;;-0.10;90.60;;;;;;4963727;28;20233;-82
2022/03/09 01:16:03;;;;;;;7.77;3.97;;;-0.20;90.70;;;;;;4963835;28;20740;-82
2022/03/09 01:18:30;;;;;;;7.27;3.73;;;-0.20;90.70;;;;;;4984452;28;20226;-82
2022/03/09 01:20:56;;;;;;;6.10;4.03;;;-0.30;90.70;;;;;;4960065;28;20228;-81
2022/03/09 01:23:24;;;;;;;7.10;4.33;;;-0.30;90.90;;;;;;4966504;28;20265;-80
2022/03/09 01:25:52;;;;;;;6.03;3.70;;;-0.40;91.10;;;;;;4983678;28;20743;-81
2022/03/09 01:28:18;;;;;;;6.73;3.63;;;-0.40;91.00;;;;;;4982302;28;20226;-80
2022/03/09 01:30:45;;;;;;;4.97;3.60;;;-0.40;90.80;;;;;;4981961;28;20257;-80
2022/03/09 01:33:12;;;;;;;5.87;3.70;;;-0.50;90.90;;;;;;4968067;28;20228;-81
2022/03/09 01:35:38;;;;;;;7.70;3.67;;;-0.50;91.10;;;;;;4956130;28;20241;-80
2022/03/09 01:38:05;;;;;;;6.00;3.77;;;-0.50;91.30;;;;;;4963261;28;20227;-80
2022/03/09 01:40:33;;;;;;;5.50;3.57;;;-0.50;91.30;;;;;;4962374;28;20246;-81
2022/03/09 01:43:00;;;;;;;6.10;3.60;;;-0.60;91.40;;;;;;4986754;28;20933;-80
2022/03/09 01:45:26;;;;;;;6.23;3.67;;;-0.60;91.10;;;;;;4983436;28;20239;-81
2022/03/09 01:47:54;;;;;;;6.33;4.30;;;-0.60;91.10;;;;;;4969490;28;20246;-81
2022/03/09 01:50:21;;;;;;;6.20;4.03;;;-0.60;91.50;;;;;;4985878;28;20225;-81
2022/03/09 01:52:48;;;;;;;5.90;3.80;;;-0.70;91.60;;;;;;4984571;28;20232;-80
2022/03/09 01:55:14;;;;;;;5.73;3.60;;;-0.70;91.70;;;;;;4975900;28;20231;-80
2022/03/09 01:57:42;;;;;;;6.43;3.90;;;-0.60;91.90;;;;;;4959663;28;20225;-80
2022/03/09 02:00:11;;;;;;;5.27;3.50;;;-0.70;92.10;;;;;;4984761;28;20338;-81
2022/03/09 02:02:38;;;;;;;6.47;4.23;;;-0.70;92.20;;;;;;4964204;28;20265;-81
2022/03/09 02:05:05;;;;;;;6.37;3.70;;;-0.70;91.90;;;;;;4986834;28;20325;-80
2022/03/09 02:10:21;;;;;;;5.23;3.90;;;-0.80;92.40;;;;;;4933070;28;20233;-83
2022/03/09 02:12:49;;;;;;;7.40;3.97;;;-0.80;92.30;;;;;;4964195;28;20963;-83
2022/03/09 02:15:16;;;;;;;5.83;3.50;;;-0.80;92.10;;;;;;4956710;28;20281;-82
2022/03/09 02:17:43;;;;;;;7.73;4.00;;;-0.80;92.20;;;;;;4964206;28;20245;-83
2022/03/09 02:20:10;;;;;;;6.23;3.87;;;-0.80;92.30;;;;;;4981396;28;20232;-81
2022/03/09 02:22:40;;;;;;;6.33;4.00;;;-0.90;92.50;;;;;;4986246;28;20243;-81
2022/03/09 02:25:09;;;;;;;7.20;4.13;;;-0.90;92.60;;;;;;4968573;28;20277;-81
2022/03/09 02:27:36;;;;;;;6.37;4.07;;;-0.90;92.50;;;;;;4981621;28;20257;-81
2022/03/09 02:30:04;;;;;;;5.93;3.87;;;-0.90;92.60;;;;;;4986855;28;20246;-81
2022/03/09 02:32:31;;;;;;;5.57;3.60;;;-0.90;92.70;;;;;;4984918;28;20236;-81
2022/03/09 02:34:58;;;;;;;6.87;3.93;;;-0.90;92.70;;;;;;4985466;28;20249;-81
2022/03/09 02:37:24;;;;;;;6.57;3.93;;;-0.90;92.80;;;;;;4986401;28;20264;-81
2022/03/09 02:39:52;;;;;;;5.97;3.63;;;-0.90;92.90;;;;;;4983874;28;20798;-81
2022/03/09 02:42:19;;;;;;;6.07;4.20;;;-0.90;93.00;;;;;;4985085;28;20230;-81
2022/03/09 02:44:46;;;;;;;6.07;3.23;;;-0.90;93.00;;;;;;4985947;28;20302;-80
2022/03/09 02:47:12;;;;;;;6.80;3.80;;;-0.90;93.00;;;;;;4987206;28;20248;-81
2022/03/09 02:49:39;;;;;;;4.90;3.13;;;-0.90;93.00;;;;;;4985631;28;20236;-81
2022/03/09 02:52:06;;;;;;;5.93;3.90;;;-0.90;93.00;;;;;;4982789;28;20244;-81
2022/03/09 02:54:33;;;;;;;7.87;3.90;;;-0.80;93.10;;;;;;4973852;28;20356;-81
2022/03/09 02:57:01;;;;;;;9.10;3.97;;;-0.80;93.10;;;;;;4969228;28;20227;-84
2022/03/09 02:59:28;;;;;;;6.73;3.60;;;-0.80;93.20;;;;;;4984009;28;20530;-83
2022/03/09 03:01:54;;;;;;;7.33;3.87;;;-0.80;93.10;;;;;;4963564;28;20223;-83
2022/03/09 03:04:21;;;;;;;6.60;3.80;;;-0.80;93.10;;;;;;4965383;28;20226;-81
2022/03/09 03:06:48;;;;;;;7.10;3.90;;;-0.80;93.00;;;;;;4983407;28;20236;-82
2022/03/09 03:09:14;;;;;;;6.20;3.50;;;-0.80;93.10;;;;;;4968787;28;20317;-82
2022/03/09 03:11:41;;;;;;;4.17;3.27;;;-0.80;93.10;;;;;;4973908;28;20242;-82
2022/03/09 03:14:10;;;;;;;6.13;3.80;;;-0.80;93.20;;;;;;4967071;28;20405;-82
2022/03/09 03:16:37;;;;;;;8.83;4.33;;;-0.80;93.30;;;;;;4961269;28;20754;-82
2022/03/09 03:19:03;;;;;;;6.00;3.87;;;-0.80;93.30;;;;;;4970485;28;20924;-82
2022/03/09 03:21:32;;;;;;;8.47;4.17;;;-0.80;93.30;;;;;;4969571;28;20227;-82
2022/03/09 03:23:58;;;;;;;7.10;4.07;;;-0.80;93.30;;;;;;4971074;28;20245;-82
2022/03/09 03:26:25;;;;;;;9.97;4.40;;;-0.80;93.20;;;;;;4973183;28;20226;-82
2022/03/09 03:28:52;;;;;;;6.03;4.40;;;-0.80;93.30;;;;;;4970597;28;20232;-83
2022/03/09 03:31:21;;;;;;;9.97;4.57;;;-0.80;93.40;;;;;;4964731;28;20219;-83
2022/03/09 03:33:48;;;;;;;5.80;4.17;;;-0.80;93.40;;;;;;4983739;28;20233;-83
2022/03/09 03:36:15;;;;;;;6.73;4.07;;;-0.80;93.60;;;;;;4962130;28;20237;-82
2022/03/09 03:38:42;;;;;;;5.43;3.70;;;-0.80;93.20;;;;;;4966781;28;20234;-83
2022/03/09 03:41:08;;;;;;;6.40;4.07;;;-0.80;93.20;;;;;;4962720;28;20633;-83
2022/03/09 03:43:35;;;;;;;7.00;4.20;;;-0.80;93.20;;;;;;4962850;28;20254;-83
2022/03/09 03:46:02;;;;;;;7.43;3.83;;;-0.90;93.20;;;;;;4968259;28;20233;-83
2022/03/09 03:48:31;;;;;;;5.60;4.03;;;-0.90;93.20;;;;;;4960647;28;20231;-83
2022/03/09 03:50:58;;;;;;;7.50;4.43;;;-0.90;93.30;;;;;;4961278;28;20226;-83
2022/03/09 03:53:25;;;;;;;5.53;3.73;;;-0.90;93.40;;;;;;4969399;28;20253;-82
2022/03/09 03:55:51;;;;;;;5.80;4.47;;;-1.00;93.30;;;;;;4981896;28;20238;-83
2022/03/09 03:58:18;;;;;;;5.50;4.13;;;-1.00;93.20;;;;;;4961824;28;20529;-83
2022/03/09 04:00:45;;;;;;;7.07;4.23;;;-1.10;93.30;;;;;;4960405;28;20218;-83
2022/03/09 04:03:13;;;;;;;8.23;4.53;;;-1.10;93.40;;;;;;4985001;28;20262;-80
2022/03/09 04:05:41;;;;;;;7.93;4.73;;;-1.10;93.40;;;;;;4987934;28;20569;-79
2022/03/09 04:08:08;;;;;;;6.10;4.43;;;-1.20;93.50;;;;;;4986435;28;20342;-81
2022/03/09 04:10:35;;;;;;;6.40;4.00;;;-1.20;93.40;;;;;;4971254;28;20240;-81
2022/03/09 04:13:04;;;;;;;6.37;4.27;;;-1.30;93.40;;;;;;4963914;28;20250;-80
2022/03/09 04:15:31;;;;;;;5.83;3.80;;;-1.30;93.50;;;;;;4984072;28;20310;-80
2022/03/09 04:17:58;;;;;;;6.47;4.17;;;-1.40;93.50;;;;;;4983247;28;20656;-81
2022/03/09 04:20:25;;;;;;;7.77;4.73;;;-1.40;93.50;;;;;;4970107;28;20249;-80
2022/03/09 04:22:53;;;;;;;7.77;4.37;;;-1.50;93.60;;;;;;4970554;28;20268;-81
2022/03/09 04:25:20;;;;;;;5.70;3.80;;;-1.50;93.80;;;;;;4969030;28;20249;-80
2022/03/09 04:27:46;;;;;;;6.10;4.27;;;-1.50;93.70;;;;;;4965896;28;20232;-81
2022/03/09 04:30:13;;;;;;;6.53;4.40;;;-1.60;93.50;;;;;;4959576;28;20222;-80
2022/03/09 04:32:41;;;;;;;8.13;4.37;;;-1.60;93.60;;;;;;4987640;28;20255;-81
2022/03/09 04:35:09;;;;;;;7.83;5.10;;;-1.70;93.80;;;;;;4981941;28;20241;-80
2022/03/09 04:37:36;;;;;;;5.57;4.13;;;-1.70;94.00;;;;;;4967123;28;20235;-82
2022/03/09 04:40:06;;;;;;;8.33;4.47;;;-1.70;94.00;;;;;;4989003;28;20249;-82
2022/03/09 04:42:33;;;;;;;6.57;4.03;;;-1.80;94.10;;;;;;4988253;28;20252;-82
2022/03/09 04:45:00;;;;;;;7.13;4.27;;;-1.80;94.00;;;;;;4967247;28;20232;-82
2022/03/09 04:47:27;;;;;;;7.27;4.60;;;-1.80;94.10;;;;;;4970187;28;20248;-82
2022/03/09 04:49:54;;;;;;;9.70;4.47;;;-1.90;94.00;;;;;;4967873;28;20224;-81
2022/03/09 04:52:21;;;;;;;9.80;5.10;;;-1.90;94.20;;;;;;4963651;28;20273;-82
2022/03/09 04:54:48;;;;;;;7.20;4.37;;;-1.90;94.30;;;;;;4988616;28;20232;-82
2022/03/09 04:57:17;;;;;;;8.13;4.73;;;-1.90;94.40;;;;;;4971123;28;20659;-80
2022/03/09 04:59:44;;;;;;;10.23;4.50;;;-1.90;94.60;;;;;;4966104;28;20230;-81
2022/03/09 05:02:11;;;;;;;7.83;4.47;;;-2.00;94.60;;;;;;4967666;28;20229;-81
2022/03/09 05:04:37;;;;;;;7.93;4.73;;;-2.00;94.60;;;;;;4964538;28;20233;-80
2022/03/09 05:07:05;;;;;;;6.83;4.67;;;-2.00;94.80;;;;;;4963590;28;20537;-83
2022/03/09 05:09:32;;;;;;;6.27;4.40;;;-2.00;95.00;;;;;;4967296;28;20237;-82
2022/03/09 05:11:58;;;;;;;6.83;4.27;;;-2.00;94.80;;;;;;4981004;28;20730;-82
2022/03/09 05:14:26;;;;;;;9.03;4.57;;;-2.00;94.70;;;;;;4986044;28;20292;-82
2022/03/09 05:16:53;;;;;;;7.90;4.27;;;-2.00;95.00;;;;;;4965391;28;20233;-82
2022/03/09 05:19:20;;;;;;;8.40;4.70;;;-2.00;95.20;;;;;;4984804;28;20714;-82
2022/03/09 05:21:47;;;;;;;6.97;4.23;;;-2.00;95.30;;;;;;4983667;28;20250;-82
2022/03/09 05:24:16;;;;;;;7.90;4.30;;;-1.90;95.30;;;;;;4983928;28;20224;-82
2022/03/09 05:26:43;;;;;;;6.67;4.70;;;-1.90;95.40;;;;;;4962305;28;20228;-90
2022/03/09 05:29:10;;;;;;;6.50;4.40;;;-1.80;95.50;;;;;;4973331;28;20241;-88
2022/03/09 05:31:38;;;;;;;6.93;4.77;;;-1.80;95.60;;;;;;4974174;28;20232;-88
2022/03/09 05:34:06;;;;;;;5.97;4.03;;;-1.70;95.60;;;;;;4972957;28;20718;-89
2022/03/09 05:36:33;;;;;;;7.30;4.60;;;-1.70;95.40;;;;;;4973514;28;20235;-88
2022/03/09 05:38:59;;;;;;;6.73;4.57;;;-1.70;95.40;;;;;;4990997;28;20229;-88
2022/03/09 05:41:26;;;;;;;6.27;4.77;;;-1.70;95.40;;;;;;4968387;28;20277;-87
2022/03/09 05:43:53;;;;;;;6.20;4.37;;;-1.70;95.30;;;;;;4957002;28;20834;-87
2022/03/09 05:46:20;;;;;;;6.40;3.97;;;-1.60;95.30;;;;;;4961196;28;20235;-87
2022/03/09 05:48:48;;;;;;;8.77;5.07;;;-1.60;95.30;;;;;;4970296;28;20697;-83
2022/03/09 05:51:14;;;;;;;9.70;4.77;;;-1.60;95.40;;;;;;4982722;28;20244;-84
2022/03/09 05:53:41;;;;;;;7.13;4.60;;;-1.60;95.40;;;;;;4960966;28;20658;-82
2022/03/09 05:56:08;;;;;;;6.33;4.50;;;-1.60;95.40;;;;;;4960429;28;20738;-84
2022/03/09 05:58:34;;;;;;;7.73;4.70;;;-1.60;95.40;;;;;;4978314;28;20242;-82
2022/03/09 06:01:01;;;;;;;7.30;5.00;;;-1.60;95.40;;;;;;4987738;28;20240;-81
2022/03/09 06:03:28;;;;;;;11.17;4.80;;;-1.60;95.50;;;;;;4975871;28;20658;-81
2022/03/09 06:05:56;;;;;;;8.10;5.13;;;-1.50;95.50;;;;;;4962870;28;20219;-82
2022/03/09 06:08:22;;;;;;;8.07;5.10;;;-1.50;95.70;;;;;;4983318;28;20917;-88
2022/03/09 06:10:49;;;;;;;7.80;4.40;;;-1.50;95.70;;;;;;4978832;28;20233;-88
2022/03/09 06:13:16;;;;;;;8.53;4.70;;;-1.40;95.90;;;;;;4967677;28;20662;-85
2022/03/09 06:15:44;;;;;;;10.50;4.67;;;-1.40;96.10;;;;;;4963696;28;20605;-83
2022/03/09 06:18:11;;;;;;;7.60;4.90;;;-1.30;96.20;;;;;;4961956;28;20754;-82
2022/03/09 06:20:38;;;;;;;6.03;4.27;;;-1.30;96.10;;;;;;4971571;28;20231;-87
2022/03/09 06:23:07;;;;;;;7.50;4.00;;;-1.20;95.70;;;;;;4986653;28;20227;-86
2022/03/09 06:25:35;;;;;;;7.67;4.50;;;-1.10;95.70;;;;;;4976300;28;20231;-88
2022/03/09 06:28:02;;;;;;;8.67;4.67;;;-1.10;95.80;;;;;;4958282;28;20235;-87
2022/03/09 06:30:30;;;;;;;7.50;5.17;;;-1.00;95.80;;;;;;4957372;28;20234;-87
2022/03/09 06:32:57;;;;;;;8.70;4.83;;;-0.80;95.90;;;;;;4957920;28;20717;-87
2022/03/09 06:35:25;;;;;;;6.13;4.70;;;-0.60;96.10;;;;;;4957398;28;20333;-88
2022/03/09 06:37:52;;;;;;;8.70;4.63;;;-0.40;96.10;;;;;;4958094;28;20229;-88
2022/03/09 06:40:25;;;;;;;5.97;4.03;;;-0.10;95.90;;;;;;4957510;28;20310;-88
2022/03/09 06:42:52;;;;;;;7.30;4.17;;;0.10;95.70;;;;;;4957605;28;20238;-88
2022/03/09 06:45:20;;;;;;;7.17;4.60;;;0.20;95.30;;;;;;4957551;28;20234;-88
2022/03/09 06:47:47;;;;;;;6.80;4.20;;;0.30;94.80;;;;;;4980210;28;20273;-88
2022/03/09 06:50:15;;;;;;;6.87;4.37;;;0.40;94.90;;;;;;4975737;28;20234;-87
2022/03/09 06:52:42;;;;;;;6.40;4.33;;;0.50;94.90;;;;;;4959768;28;20243;-88
2022/03/09 06:55:12;;;;;;;6.47;4.43;;;0.60;94.90;;;;;;4967877;28;20234;-89
2022/03/09 06:57:42;;;;;;;5.73;4.20;;;0.60;94.60;;;;;;4989939;28;20235;-89
2022/03/09 07:00:12;;;;;;;6.10;4.23;;;0.60;94.50;;;;;;4969891;28;20236;-89
2022/03/09 07:02:39;;;;;;;5.67;4.60;;;0.70;94.50;;;;;;4962241;28;20222;-89
2022/03/09 07:05:07;;;;;;;5.97;4.10;;;0.70;94.50;;;;;;4961049;28;20281;-89
2022/03/09 07:07:35;;;;;;;7.90;4.10;;;0.80;94.50;;;;;;4970310;28;20236;-89
2022/03/09 07:10:02;;;;;;;8.43;4.57;;;0.80;94.60;;;;;;4960706;28;20233;-89
2022/03/09 07:12:28;;;;;;;9.23;4.80;;;0.80;94.50;;;;;;4967771;28;20239;-89
2022/03/09 07:14:57;;;;;;;6.30;4.43;;;0.90;94.60;;;;;;4968000;28;20330;-89
2022/03/09 07:17:24;;;;;;;6.97;4.50;;;1.00;94.50;;;;;;4976138;28;20241;-88
2022/03/09 07:19:51;;;;;;;6.77;4.50;;;1.10;94.50;;;;;;4965580;28;20316;-89
2022/03/09 07:22:18;;;;;;;6.77;4.50;;;1.10;94.60;;;;;;4956119;28;20233;-89
2022/03/09 07:24:45;;;;;;;7.47;4.07;;;1.20;94.60;;;;;;4956205;28;20836;-85
2022/03/09 07:27:12;;;;;;;7.40;4.20;;;1.40;94.50;;;;;;4973597;28;20312;-88
2022/03/09 07:29:39;;;;;;;6.97;4.50;;;1.50;94.70;;;;;;4961326;28;20344;-87
2022/03/09 07:32:08;;;;;;;7.37;4.43;;;1.60;94.80;;;;;;4967651;28;20228;-87
2022/03/09 07:34:35;;;;;;;9.20;4.80;;;1.80;94.80;;;;;;4974132;28;20233;-87
2022/03/09 07:37:02;;;;;;;8.23;4.50;;;2.00;94.70;;;;;;4976057;28;20235;-86
2022/03/09 07:39:31;;;;;;;6.60;4.37;;;2.20;94.40;;;;;;4974908;28;20304;-87
2022/03/09 07:41:58;;;;;;;8.47;4.30;;;2.40;94.40;;;;;;4974626;28;20234;-89
2022/03/09 07:44:25;;;;;;;7.23;4.00;;;2.70;94.30;;;;;;4967726;28;20701;-89
2022/03/09 07:46:53;;;;;;;7.03;4.20;;;3.00;94.40;;;;;;4965898;28;20321;-89
2022/03/09 07:49:22;;;;;;;6.17;4.33;;;3.40;94.30;;;;;;4969746;28;20722;-88
2022/03/09 07:51:49;;;;;;;6.60;4.50;;;3.70;94.10;;;;;;4985396;28;20313;-89
2022/03/09 07:54:17;;;;;;;6.40;4.10;;;4.20;94.00;;;;;;4967605;28;20231;-89
2022/03/09 07:56:44;;;;;;;5.50;3.80;;;4.70;93.60;;;;;;4963226;28;20230;-89
2022/03/09 07:59:11;;;;;;;5.97;3.80;;;5.10;93.00;;;;;;4968024;28;20229;-89
2022/03/09 08:01:39;;;;;;;8.33;4.60;;;5.50;92.50;;;;;;4965269;28;20657;-88
2022/03/09 08:04:07;;;;;;;6.17;4.23;;;5.80;92.30;;;;;;4966726;28;20699;-89
2022/03/09 08:06:37;;;;;;;5.50;3.87;;;6.10;92.00;;;;;;4964936;28;20608;-89
2022/03/09 08:09:04;;;;;;;9.00;4.40;;;6.30;91.40;;;;;;4979954;28;20695;-89
2022/03/09 08:11:31;;;;;;;4.80;3.90;;;6.50;90.40;;;;;;4970226;28;20256;-89
2022/03/09 08:13:58;;;;;;;6.47;4.20;;;6.60;90.30;;;;;;4978282;28;20222;-91
2022/03/09 08:16:24;;;;;;;5.40;4.00;;;6.70;89.90;;;;;;4963665;28;20272;-89
2022/03/09 08:18:51;;;;;;;6.97;4.07;;;6.80;88.70;;;;;;4967986;28;20329;-89
2022/03/09 08:21:18;;;;;;;9.13;5.60;;;6.80;86.60;;;;;;4973405;28;20235;-88
2022/03/09 08:23:46;;;;;;;5.40;3.80;;;6.80;85.20;;;;;;4962912;28;20591;-89
2022/03/09 08:26:13;;;;;;;11.03;6.20;;;6.70;85.00;;;;;;4965831;28;20256;-89
2022/03/09 08:28:40;;;;;;;11.23;4.70;;;6.70;84.80;;;;;;4964988;28;20236;-88
2022/03/09 08:31:07;;;;;;;8.63;4.33;;;6.60;85.00;;;;;;4971710;28;20322;-88
2022/03/09 08:33:34;;;;;;;9.20;4.10;;;6.60;86.90;;;;;;4984433;28;20713;-89
2022/03/09 08:36:00;;;;;;;7.37;4.17;;;6.70;86.60;;;;;;4983592;28;20295;-89
2022/03/09 08:38:27;;;;;;;6.17;3.97;;;6.80;87.30;;;;;;4974721;28;20226;-89
2022/03/09 08:40:55;;;;;;;4.53;3.60;;;7.00;87.10;;;;;;4958962;28;20241;-89
2022/03/09 08:43:22;;;;;;;6.33;3.70;;;7.30;85.60;;;;;;4984902;28;20575;-89
2022/03/09 08:45:49;;;;;;;8.77;3.80;;;7.60;85.60;;;;;;4970671;28;20228;-89
2022/03/09 08:48:16;;;;;;;6.30;4.07;;;8.00;83.90;;;;;;4969738;28;20701;-89
2022/03/09 08:50:43;;;;;;;7.27;3.83;;;8.50;84.10;;;;;;4962015;28;20244;-89
2022/03/09 08:53:10;;;;;;;5.27;3.50;;;8.80;84.90;;;;;;4972336;28;20738;-88
2022/03/09 08:55:37;;;;;;;7.37;3.40;;;9.30;81.50;;;;;;4962274;28;20234;-89
2022/03/09 08:58:05;;;;;;;5.67;4.20;;;9.80;83.20;;;;;;4962292;28;20236;-89
2022/03/09 09:00:32;;;;;;;6.43;4.13;;;10.30;82.30;;;;;;4974665;28;20246;-89
2022/03/09 09:03:00;;;;;;;6.13;3.70;;;10.90;81.70;;;;;;4965856;28;20965;-90
2022/03/09 09:05:28;;;;;;;4.47;3.60;;;11.40;78.90;;;;;;4965007;28;20258;-89
2022/03/09 09:07:54;;;;;;;6.30;3.97;;;11.90;78.20;;;;;;4970185;28;20229;-89
2022/03/09 09:10:22;;;;;;;8.20;4.80;;;12.40;73.30;;;;;;4974510;28;20238;-88
2022/03/09 09:12:50;;;;;;;10.13;5.07;;;12.80;75.10;;;;;;4957991;28;20686;-89
2022/03/09 09:15:19;;;;;;;6.63;4.70;;;13.20;71.70;;;;;;4980474;28;20234;-90
2022/03/09 09:17:46;;;;;;;7.30;3.67;;;13.50;71.90;;;;;;4964620;28;20326;-89
2022/03/09 09:20:13;;;;;;;6.03;3.93;;;13.90;72.30;;;;;;4976747;28;20267;-89
2022/03/09 09:22:43;;;;;;;6.53;4.10;;;14.30;71.50;;;;;;4972055;28;20338;-89
2022/03/09 09:25:11;;;;;;;6.60;3.80;;;14.70;69.80;;;;;;4960103;28;20256;-89
2022/03/09 09:27:38;;;;;;;5.40;3.87;;;15.20;68.40;;;;;;4984866;28;20316;-89
2022/03/09 09:30:05;;;;;;;7.23;3.57;;;15.50;65.30;;;;;;4976211;28;20277;-88
2022/03/09 09:32:33;;;;;;;5.80;3.90;;;15.80;63.00;;;;;;4962063;28;20256;-89
2022/03/09 09:35:00;;;;;;;4.83;3.70;;;16.00;59.90;;;;;;4965054;28;20680;-90
2022/03/09 09:37:27;;;;;;;5.57;3.53;;;16.10;56.80;;;;;;4970928;28;20236;-89
2022/03/09 09:39:54;;;;;;;4.20;3.50;;;16.00;57.40;;;;;;4965546;28;20229;-90
2022/03/09 09:42:26;;;;;;;6.13;3.60;;;15.90;56.50;;;;;;4981509;28;20224;-91
2022/03/09 09:44:54;;;;;;;4.67;3.80;;;15.80;56.80;;;;;;4968941;28;20228;-90
2022/03/09 09:47:21;;;;;;;4.77;3.73;;;15.70;55.50;;;;;;4977066;28;20223;-90
2022/03/09 09:49:49;;;;;;;4.70;3.70;;;15.60;57.10;;;;;;4963277;28;20319;-91
2022/03/09 09:52:16;;;;;;;5.17;3.70;;;15.60;57.60;;;;;;4959812;28;20247;-90
2022/03/09 09:54:43;;;;;;;5.50;3.40;;;15.70;57.50;;;;;;4964672;28;20750;-90
2022/03/09 09:57:13;;;;;;;5.77;3.90;;;15.80;57.70;;;;;;4960158;28;20248;-90
2022/03/09 09:59:40;;;;;;;4.40;3.43;;;15.90;55.70;;;;;;4960650;28;20233;-91
2022/03/09 10:02:07;;;;;;;9.60;4.30;;;16.00;56.50;;;;;;4970943;28;20309;-90
2022/03/09 10:04:34;;;;;;;4.23;3.63;;;16.20;57.50;;;;;;4979423;28;20228;-90
2022/03/09 10:07:02;;;;;;;7.47;3.93;;;16.40;57.00;;;;;;4984506;28;20238;-89
2022/03/09 10:09:35;;;;;;;4.40;3.70;;;16.60;55.10;;;;;;4978250;28;20234;-84
2022/03/09 10:12:04;;;;;;;5.77;4.07;;;16.70;54.70;;;;;;4960516;28;20233;-84
2022/03/09 10:14:44;;;;;;;6.93;4.20;;;16.90;56.10;;;;;;4959012;28;20226;-84
2022/03/09 10:17:12;;;;;;;5.90;3.83;;;17.10;54.70;;;;;;4960143;28;20217;-84
2022/03/09 10:19:39;;;;;;;5.10;3.97;;;17.30;55.90;;;;;;4959023;28;20237;-84
2022/03/09 10:22:33;;;;;;;5.47;3.90;;;17.60;54.80;;;;;;4961326;28;20221;-84
2022/03/09 10:25:02;;;;;;;5.70;3.70;;;17.80;53.80;;;;;;4965216;28;20233;-84
2022/03/09 10:27:35;;;;;;;5.53;3.97;;;18.00;53.30;;;;;;4983521;28;20233;-83
2022/03/09 10:30:02;;;;;;;5.40;4.00;;;18.10;51.70;;;;;;4979490;28;20281;-84
2022/03/09 10:32:47;;;;;;;5.87;4.10;;;18.10;52.30;;;;;;4978443;28;20830;-84
2022/03/09 10:35:15;;;;;;;6.43;4.23;;;18.20;52.60;;;;;;4959551;28;20359;-83
2022/03/09 10:37:44;;;;;;;7.40;4.03;;;18.40;53.20;;;;;;4966953;28;20241;-85
2022/03/09 10:40:13;;;;;;;6.25;4.38;;;18.50;52.60;;;;;;4970955;28;20261;-85
2022/03/09 10:42:40;;;;;;;9.07;4.50;;;18.70;52.30;;;;;;4980444;28;20321;-85
2022/03/09 10:45:09;;;;;;;5.00;4.07;;;18.90;49.00;;;;;;4949510;28;20242;-85
2022/03/09 10:47:37;;;;;;;4.75;3.90;;;18.90;50.60;;;;;;4949070;28;20257;-85
2022/03/09 10:50:13;;;;;;;4.68;3.75;;;18.90;47.40;;;;;;4961816;28;20238;-81
2022/03/09 10:52:50;;;;;;;5.68;4.25;;;18.80;48.20;;;;;;4960001;28;20313;-86
2022/03/09 10:55:31;;;;;;;5.17;4.33;;;18.70;48.20;;;;;;4963180;28;20236;-83
2022/03/09 10:58:10;;;;;;;6.53;4.70;;;18.60;45.90;;;;;;4977530;28;20394;-85
2022/03/09 11:00:43;;;;;;;6.57;4.30;;;18.50;47.10;;;;;;4972076;28;20238;-84
2022/03/09 11:03:11;;;;;;;5.57;4.50;;;18.40;48.00;;;;;;4977079;28;20686;-85
2022/03/09 11:05:50;;;;;;;5.47;4.32;;;18.40;49.50;;;;;;4974651;28;20234;-85
2022/03/09 11:08:20;;;;;;;5.38;4.25;;;18.40;48.80;;;;;;4980113;28;20236;-85
2022/03/09 11:10:48;;;;;;;6.70;4.00;;;18.50;47.00;;;;;;4965503;28;20230;-84
2022/03/09 11:13:16;;;;;;;5.72;4.05;;;18.60;48.20;;;;;;4985093;28;20728;-84
2022/03/09 11:15:43;;;;;;;6.28;4.07;;;18.60;47.90;;;;;;4986690;28;20236;-84
2022/03/09 11:18:13;;;;;;;5.32;4.18;;;18.60;47.80;;;;;;4968032;28;20230;-84
2022/03/09 11:20:40;;;;;;;5.93;3.70;;;18.60;46.70;;;;;;4976102;28;20735;-84
2022/03/09 11:23:07;;;;;;;4.20;3.80;;;18.60;46.90;;;;;;4962891;28;20234;-85
2022/03/09 11:25:37;;;;;;;5.77;4.10;;;18.60;46.60;;;;;;4980910;28;20227;-84
2022/03/09 11:28:04;;;;;;;4.70;3.60;;;18.50;45.60;;;;;;4967796;28;20235;-84
2022/03/09 11:30:33;;;;;;;4.60;4.00;;;18.40;46.10;;;;;;4974489;28;20229;-85
2022/03/09 11:33:01;;;;;;;6.33;4.30;;;18.40;46.90;;;;;;4972957;28;20230;-84
2022/03/09 11:35:32;;;;;;;7.80;4.80;;;18.30;45.10;;;;;;4985239;28;20240;-84
2022/03/09 11:37:59;;;;;;;7.37;4.07;;;18.30;45.10;;;;;;4981815;28;20277;-84
2022/03/09 11:40:26;;;;;;;4.60;3.95;;;18.20;46.40;;;;;;4958973;28;20234;-84
2022/03/09 11:42:54;;;;;;;5.45;4.50;;;18.20;46.70;;;;;;4967411;28;20294;-84
2022/03/09 11:45:32;;;;;;;5.40;4.65;;;18.20;45.70;;;;;;4961958;28;20237;-84
2022/03/09 11:48:02;;;;;;;4.40;3.90;;;18.30;44.20;;;;;;4974647;28;20226;-84
2022/03/09 11:50:31;;;;;;;4.87;4.07;;;18.40;45.30;;;;;;4961039;28;20599;-84
2022/03/09 11:53:02;;;;;;;5.67;4.40;;;18.50;45.30;;;;;;4973750;28;20235;-84
2022/03/09 11:55:29;;;;;;;6.03;4.40;;;18.50;43.90;;;;;;4981660;28;20318;-81
2022/03/09 11:58:11;;;;;;;5.80;4.00;;;18.40;44.70;;;;;;4986444;28;20230;-83
2022/03/09 12:00:39;;;;;;;5.10;4.23;;;18.30;43.40;;;;;;4965792;28;20759;-84
2022/03/09 12:03:07;;;;;;;6.10;4.40;;;18.30;44.80;;;;;;4982576;28;20241;-84
2022/03/09 12:05:41;;;;;;;5.00;4.10;;;18.20;45.00;;;;;;4978384;28;20899;-83
2022/03/09 12:08:09;;;;;;;4.73;4.00;;;18.20;45.40;;;;;;4973083;28;20271;-84
2022/03/09 12:10:51;;;;;;;6.50;4.67;;;18.30;46.10;;;;;;4974951;28;20226;-84
2022/03/09 12:13:31;;;;;;;5.90;4.55;;;18.30;45.70;;;;;;4962570;28;20214;-84
2022/03/09 12:16:15;;;;;;;6.45;4.70;;;18.40;45.10;;;;;;4978391;28;20238;-84
2022/03/09 12:18:50;;;;;;;7.85;4.40;;;18.60;45.00;;;;;;4959641;28;20231;-84
2022/03/09 12:21:19;;;;;;;4.87;4.37;;;18.70;45.70;;;;;;4971143;28;20257;-83
2022/03/09 12:24:32;;;;;;;5.88;5.00;;;18.70;45.80;;;;;;4979538;28;20237;-84
2022/03/09 12:26:59;;;;;;;6.03;4.45;;;18.80;45.00;;;;;;4982345;28;20226;-83
2022/03/09 12:29:45;;;;;;;5.55;4.88;;;18.90;44.90;;;;;;4978820;28;20600;-83
2022/03/09 12:32:13;;;;;;;5.03;3.78;;;18.90;44.00;;;;;;4959683;28;20252;-83
2022/03/09 12:34:42;;;;;;;5.63;4.80;;;18.90;44.50;;;;;;4980198;28;20238;-84
2022/03/09 12:37:11;;;;;;;6.07;4.78;;;18.90;44.30;;;;;;4978941;28;20227;-84
2022/03/09 12:39:39;;;;;;;7.47;4.53;;;18.80;43.30;;;;;;4957897;28;20313;-83
2022/03/09 12:42:07;;;;;;;5.37;4.63;;;18.70;44.00;;;;;;4954589;28;21088;-83
2022/03/09 12:44:35;;;;;;;4.97;4.47;;;18.50;42.20;;;;;;4965604;28;20234;-83
2022/03/09 12:47:05;;;;;;;5.70;4.73;;;18.40;43.70;;;;;;4975869;28;20231;-83
2022/03/09 12:49:35;;;;;;;5.80;4.38;;;18.20;43.80;;;;;;4979470;28;20281;-83
2022/03/09 12:52:05;;;;;;;6.28;4.45;;;18.10;44.70;;;;;;4975745;28;20230;-83
2022/03/09 12:54:43;;;;;;;5.83;4.37;;;18.10;44.70;;;;;;4962586;28;20249;-83
2022/03/09 12:57:15;;;;;;;5.50;4.37;;;18.20;44.10;;;;;;4958490;28;20297;-83